| time (UTC) | temp C | wind direction | speed KPH | gust KPH | rain 1hr cm | rain 24hr cm | rain mn cm | humidity % | barometer mb |
| 20260901054820 | 19 | 262 | 0.0 | 4.8 | 0.00 | 0.00 | 0.00 | 97 | 1024.2 |
| 20260901054316 | 19 | 257 | 3.2 | 3.2 | 0.00 | 0.00 | 0.00 | 97 | 1024.1 |
| 20260901053812 | 19 | 229 | 0.0 | 3.2 | 0.00 | 0.00 | 0.00 | 97 | 1024.2 |
| 20260901053307 | 19 | 251 | 1.6 | 3.2 | 0.00 | 0.00 | 0.00 | 97 | 1024.2 |
| 20260901052757 | 19 | 236 | 0.0 | 3.2 | 0.00 | 0.00 | 0.00 | 97 | 1024.1 |
| 20260901052253 | 19 | 213 | 1.6 | 3.2 | 0.00 | 0.00 | 0.00 | 97 | 1024.2 |
| 20260901051751 | 19 | 249 | 1.6 | 4.8 | 0.00 | 0.00 | 0.00 | 96 | 1024.2 |
| 20260901051246 | 19 | 177 | 4.8 | 9.7 | 0.00 | 0.00 | 0.00 | 96 | 1024.3 |
| 20260901050736 | 19 | 246 | 1.6 | 3.2 | 0.00 | 0.00 | 0.00 | 96 | 1024.2 |
| 20260901050231 | 19 | 148 | 0.0 | 3.2 | 0.00 | 0.00 | 0.00 | 96 | 1024.2 |
| 20260901045726 | 19 | 234 | 0.0 | 3.2 | 0.00 | 0.00 | 0.00 | 96 | 1024.2 |
| 20260901045221 | 19 | 235 | 1.6 | 3.2 | 0.00 | 0.00 | 0.00 | 96 | 1024.2 |
| 20260901044716 | 19 | 222 | 4.8 | 4.8 | 0.00 | 0.00 | 0.00 | 96 | 1024.2 |
| 20260901044214 | 20 | 230 | 1.6 | 4.8 | 0.00 | 0.00 | 0.00 | 95 | 1024.2 |
| 20260901043708 | 20 | 251 | 1.6 | 4.8 | 0.00 | 0.00 | 0.00 | 95 | 1024.3 |
| 20260901043203 | 20 | 238 | 3.2 | 4.8 | 0.00 | 0.00 | 0.00 | 95 | 1024.2 |
| 20260901042702 | 20 | 186 | 6.4 | 6.4 | 0.00 | 0.00 | 0.00 | 95 | 1024.4 |
| 20260901042157 | 20 | 229 | 0.0 | 1.6 | 0.00 | 0.00 | 0.00 | 94 | 1024.4 |
| 20260901041653 | 20 | 228 | 6.4 | 9.7 | 0.00 | 0.00 | 0.00 | 93 | 1024.4 |
| 20260901041152 | 20 | 175 | 1.6 | 4.8 | 0.00 | 0.00 | 0.00 | 93 | 1024.4 |
| 20260901040648 | 21 | 192 | 4.8 | 6.4 | 0.00 | 0.00 | 0.00 | 92 | 1024.4 |
| 20260901040141 | 21 | 212 | 1.6 | 9.7 | 0.00 | 0.00 | 0.00 | 92 | 1024.5 |
| 20260901035640 | 20 | 184 | 3.2 | 6.4 | 0.00 | 0.00 | 0.00 | 93 | 1024.5 |
| 20260901035138 | 20 | 248 | 3.2 | 4.8 | 0.00 | 0.00 | 0.00 | 94 | 1024.5 |
| 20260901034633 | 20 | 239 | 3.2 | 4.8 | 0.00 | 0.00 | 0.00 | 94 | 1024.6 |
| 20260901034133 | 20 | 249 | 3.2 | 3.2 | 0.00 | 0.00 | 0.00 | 94 | 1024.5 |
| 20260901033632 | 20 | 247 | 3.2 | 4.8 | 0.00 | 0.00 | 0.00 | 94 | 1024.5 |
| 20260901033132 | 20 | 220 | 3.2 | 3.2 | 0.00 | 0.00 | 0.00 | 95 | 1024.7 |
| 20260901032630 | 20 | 191 | 1.6 | 4.8 | 0.00 | 0.00 | 0.00 | 95 | 1024.7 |
| 20260901032125 | 20 | 191 | 1.6 | 4.8 | 0.00 | 0.00 | 0.00 | 96 | 1024.6 |
| 20260901031621 | 20 | 38 | 0.0 | 1.6 | 0.00 | 0.00 | 0.00 | 96 | 1024.6 |
| 20260901031117 | 20 | 142 | 3.2 | 3.2 | 0.00 | 0.00 | 0.00 | 97 | 1024.6 |
| 20260901030616 | 20 | 134 | 0.0 | 1.6 | 0.00 | 0.00 | 0.00 | 97 | 1024.5 |
| 20260901030111 | 20 | 338 | 0.0 | 1.6 | 0.00 | 0.00 | 0.00 | 97 | 1024.5 |
| 20260901025606 | 20 | 270 | 0.0 | 1.6 | 0.00 | 0.00 | 0.00 | 97 | 1024.7 |
| 20260901025100 | 20 | 100 | 0.0 | 0.0 | 0.00 | 0.00 | 0.00 | 97 | 1024.6 |
| 20260901024555 | 20 | 346 | 0.0 | 0.0 | 0.00 | 0.00 | 0.00 | 97 | 1024.5 |
| 20260901024054 | 20 | 238 | 0.0 | 3.2 | 0.00 | 0.00 | 0.00 | 96 | 1024.7 |
| 20260901023553 | 20 | 292 | 1.6 | 3.2 | 0.00 | 0.00 | 0.00 | 97 | 1024.8 |
| 20260901023048 | 20 | 260 | 0.0 | 1.6 | 0.00 | 0.00 | 0.00 | 97 | 1024.6 |
| 20260901022543 | 20 | 273 | 1.6 | 3.2 | 0.00 | 0.00 | 0.00 | 98 | 1024.7 |
| 20260901022039 | 20 | 233 | 1.6 | 3.2 | 0.00 | 0.00 | 0.00 | 98 | 1024.8 |
| 20260901021534 | 20 | 227 | 0.0 | 0.0 | 0.00 | 0.00 | 0.00 | 98 | 1024.7 |
| 20260901021030 | 20 | 182 | 0.0 | 0.0 | 0.00 | 0.00 | 0.00 | 98 | 1024.6 |
| 20260901020525 | 20 | 180 | 0.0 | 0.0 | 0.00 | 0.00 | 0.00 | 98 | 1024.7 |
| 20260901020020 | 20 | 173 | 0.0 | 0.0 | 0.00 | 0.00 | 0.00 | 98 | 1024.7 |
| 20260901015516 | 20 | 146 | 0.0 | 0.0 | 0.00 | 0.00 | 0.00 | 98 | 1024.6 |
| 20260901015015 | 20 | 139 | 0.0 | 0.0 | 0.00 | 0.00 | 0.00 | 97 | 1024.8 |
| 20260901014511 | 20 | 105 | 0.0 | 0.0 | 0.00 | 0.00 | 0.00 | 97 | 1024.7 |
| 20260901014007 | 20 | 105 | 0.0 | 0.0 | 0.00 | 0.00 | 0.00 | 97 | 1024.8 |
| 20260901013502 | 20 | 111 | 0.0 | 0.0 | 0.00 | 0.00 | 0.00 | 97 | 1024.5 |
| 20260901012958 | 20 | 111 | 0.0 | 0.0 | 0.00 | 0.00 | 0.00 | 97 | 1024.2 |
| 20260901012457 | 20 | 121 | 0.0 | 0.0 | 0.00 | 0.00 | 0.00 | 97 | 1024.2 |
| 20260901011953 | 20 | 113 | 0.0 | 0.0 | 0.00 | 0.00 | 0.00 | 96 | 1024.3 |
| 20260901011449 | 20 | 113 | 0.0 | 0.0 | 0.00 | 0.00 | 0.00 | 96 | 1024.0 |
| 20260901010946 | 20 | 113 | 0.0 | 0.0 | 0.00 | 0.00 | 0.00 | 95 | 1024.0 |
| 20260901010442 | 21 | 113 | 0.0 | 0.0 | 0.00 | 0.00 | 0.00 | 95 | 1023.7 |
| 20260901005941 | 21 | 121 | 0.0 | 0.0 | 0.00 | 0.00 | 0.00 | 95 | 1023.6 |
| 20260901005436 | 21 | 117 | 0.0 | 0.0 | 0.00 | 0.00 | 0.00 | 95 | 1023.5 |
| 20260901004931 | 21 | 83 | 1.6 | 1.6 | 0.00 | 0.00 | 0.00 | 94 | 1023.7 |
| 20260901004431 | 21 | 219 | 0.0 | 1.6 | 0.00 | 0.00 | 0.00 | 93 | 1023.5 |
| 20260901003925 | 21 | 100 | 1.6 | 3.2 | 0.00 | 0.00 | 0.00 | 93 | 1023.5 |
| 20260901003420 | 21 | 270 | 0.0 | 0.0 | 0.00 | 0.00 | 0.00 | 93 | 1023.5 |
| 20260901002918 | 22 | 98 | 1.6 | 3.2 | 0.00 | 0.00 | 0.00 | 91 | 1023.3 |
| 20260901002412 | 22 | 59 | 0.0 | 0.0 | 0.00 | 0.00 | 0.00 | 92 | 1023.5 |
| 20260901001907 | 22 | 81 | 0.0 | 0.0 | 0.00 | 0.00 | 0.00 | 92 | 1023.4 |
| 20260901001403 | 22 | 269 | 0.0 | 3.2 | 0.00 | 0.00 | 0.00 | 91 | 1023.4 |
| 20260901000858 | 22 | 128 | 0.0 | 0.0 | 0.00 | 0.00 | 0.00 | 92 | 1023.2 |
| 20260901000353 | 22 | 71 | 1.6 | 3.2 | 0.00 | 0.00 | 0.00 | 88 | 1023.1 |
| 20260831235851 | 22 | 147 | 0.0 | 0.0 | 0.00 | 0.00 | 0.00 | 92 | 1023.3 |
| 20260831235348 | 22 | 208 | 0.0 | 0.0 | 0.00 | 0.00 | 0.00 | 92 | 1023.4 |
| 20260831234842 | 22 | 102 | 0.0 | 0.0 | 0.00 | 0.00 | 0.00 | 91 | 1023.4 |
| 20260831234337 | 22 | 105 | 1.6 | 3.2 | 0.00 | 0.00 | 0.00 | 89 | 1023.1 |
| 20260831233832 | 22 | 78 | 1.6 | 1.6 | 0.00 | 0.00 | 0.00 | 90 | 1023.4 |
| 20260831233327 | 23 | 75 | 0.0 | 0.0 | 0.00 | 0.00 | 0.00 | 89 | 1023.3 |
| 20260831232822 | 23 | 220 | 0.0 | 1.6 | 0.00 | 0.00 | 0.00 | 87 | 1023.5 |
| 20260831232319 | 23 | 136 | 0.0 | 1.6 | 0.00 | 0.00 | 0.00 | 87 | 1023.5 |
| 20260831231815 | 23 | 243 | 1.6 | 1.6 | 0.00 | 0.00 | 0.00 | 86 | 1023.4 |
| 20260831231311 | 23 | 99 | 0.0 | 1.6 | 0.00 | 0.00 | 0.00 | 84 | 1023.5 |
| 20260831230806 | 24 | 175 | 0.0 | 3.2 | 0.00 | 0.00 | 0.00 | 83 | 1023.4 |
| 20260831230301 | 24 | 101 | 3.2 | 4.8 | 0.00 | 0.00 | 0.00 | 83 | 1023.5 |
| 20260831225800 | 25 | 114 | 3.2 | 3.2 | 0.00 | 0.00 | 0.00 | 84 | 1023.5 |
| 20260831225255 | 25 | 79 | 4.8 | 4.8 | 0.00 | 0.00 | 0.00 | 75 | 1023.3 |
| 20260831224750 | 25 | 127 | 0.0 | 0.0 | 0.00 | 0.00 | 0.00 | 82 | 1023.4 |
| 20260831224246 | 25 | 109 | 0.0 | 0.0 | 0.00 | 0.00 | 0.00 | 78 | 1023.5 |
| 20260831223740 | 26 | 45 | 1.6 | 3.2 | 0.00 | 0.00 | 0.00 | 70 | 1023.4 |
| 20260831223237 | 25 | 158 | 0.0 | 6.4 | 0.00 | 0.00 | 0.00 | 71 | 1023.4 |
| 20260831222733 | 26 | 116 | 4.8 | 4.8 | 0.00 | 0.00 | 0.00 | 72 | 1023.5 |
| 20260831222228 | 26 | 104 | 1.6 | 1.6 | 0.00 | 0.00 | 0.00 | 76 | 1023.6 |
| 20260831221724 | 26 | 115 | 0.0 | 1.6 | 0.00 | 0.00 | 0.00 | 69 | 1023.3 |
| 20260831221219 | 27 | 132 | 0.0 | 1.6 | 0.00 | 0.00 | 0.00 | 72 | 1023.4 |
| 20260831220714 | 28 | 156 | 0.0 | 3.2 | 0.00 | 0.00 | 0.00 | 63 | 1023.5 |
| 20260831220209 | 28 | 132 | 1.6 | 6.4 | 0.00 | 0.00 | 0.00 | 59 | 1023.3 |
| 20260831215704 | 30 | 254 | 3.2 | 4.8 | 0.00 | 0.00 | 0.00 | 60 | 1023.4 |
| 20260831215200 | 30 | 271 | 1.6 | 1.6 | 0.00 | 0.00 | 0.00 | 55 | 1023.5 |
| 20260831214657 | 30 | 281 | 0.0 | 0.0 | 0.00 | 0.00 | 0.00 | 52 | 1023.5 |
| 20260831214153 | 30 | 247 | 0.0 | 1.6 | 0.00 | 0.00 | 0.00 | 58 | 1023.5 |
| 20260831213648 | 30 | 159 | 4.8 | 4.8 | 0.00 | 0.00 | 0.00 | 58 | 1023.7 |
| 20260831213143 | 30 | 175 | 4.8 | 6.4 | 0.00 | 0.00 | 0.00 | 57 | 1023.9 |
| 20260831212640 | 30 | 191 | 4.8 | 9.7 | 0.00 | 0.00 | 0.00 | 61 | 1024.0 |
| 20260831212137 | 29 | 178 | 6.4 | 6.4 | 0.00 | 0.00 | 0.00 | 61 | 1023.5 |
| 20260831211635 | 30 | 280 | 3.2 | 4.8 | 0.00 | 0.00 | 0.00 | 58 | 1023.7 |
| 20260831211130 | 30 | 162 | 4.8 | 6.4 | 0.00 | 0.00 | 0.00 | 54 | 1023.5 |
| 20260831210625 | 30 | 191 | 1.6 | 3.2 | 0.00 | 0.00 | 0.00 | 56 | 1023.7 |
| 20260831210121 | 30 | 188 | 3.2 | 4.8 | 0.00 | 0.00 | 0.00 | 58 | 1023.9 |
| 20260831205620 | 28 | 271 | 1.6 | 3.2 | 0.00 | 0.00 | 0.00 | 59 | 1023.7 |
| 20260831205116 | 28 | 99 | 4.8 | 4.8 | 0.00 | 0.00 | 0.00 | 61 | 1023.9 |
| 20260831204616 | 28 | 83 | 4.8 | 6.4 | 0.00 | 0.00 | 0.00 | 60 | 1024.0 |
| 20260831204114 | 28 | 295 | 6.4 | 9.7 | 0.00 | 0.00 | 0.00 | 63 | 1023.7 |
| 20260831203609 | 28 | 230 | 3.2 | 4.8 | 0.00 | 0.00 | 0.00 | 63 | 1024.1 |
| 20260831203108 | 27 | 79 | 3.2 | 4.8 | 0.00 | 0.00 | 0.00 | 68 | 1024.1 |
| 20260831202607 | 27 | 165 | 3.2 | 6.4 | 0.00 | 0.00 | 0.00 | 65 | 1024.1 |
| 20260831202102 | 28 | 172 | 4.8 | 4.8 | 0.00 | 0.00 | 0.00 | 62 | 1024.1 |
| 20260831201600 | 28 | 171 | 1.6 | 1.6 | 0.00 | 0.00 | 0.00 | 63 | 1024.2 |
| 20260831201056 | 28 | 51 | 1.6 | 3.2 | 0.00 | 0.00 | 0.00 | 68 | 1024.0 |
| 20260831200551 | 27 | 40 | 1.6 | 4.8 | 0.00 | 0.00 | 0.00 | 68 | 1024.3 |
| 20260831200046 | 27 | 54 | 6.4 | 6.4 | 0.00 | 0.00 | 0.00 | 72 | 1024.0 |
| 20260831195542 | 27 | 48 | 1.6 | 3.2 | 0.00 | 0.00 | 0.00 | 73 | 1024.0 |
| 20260831195036 | 27 | 108 | 0.0 | 0.0 | 0.00 | 0.00 | 0.00 | 66 | 1024.0 |
| 20260831194526 | 27 | 97 | 3.2 | 3.2 | 0.00 | 0.00 | 0.00 | 69 | 1024.0 |
| 20260831194026 | 27 | 66 | 1.6 | 3.2 | 0.00 | 0.00 | 0.00 | 72 | 1024.2 |
| 20260831193522 | 27 | 52 | 1.6 | 4.8 | 0.00 | 0.00 | 0.00 | 69 | 1024.5 |
| 20260831193016 | 27 | 219 | 3.2 | 3.2 | 0.00 | 0.00 | 0.00 | 66 | 1024.5 |
| 20260831192506 | 27 | 206 | 3.2 | 4.8 | 0.00 | 0.00 | 0.00 | 73 | 1024.6 |
| 20260831192001 | 27 | 195 | 1.6 | 1.6 | 0.00 | 0.00 | 0.00 | 71 | 1024.5 |
| 20260831191457 | 27 | 217 | 3.2 | 4.8 | 0.00 | 0.00 | 0.00 | 73 | 1024.5 |
| 20260831190953 | 27 | 187 | 1.6 | 4.8 | 0.00 | 0.00 | 0.00 | 70 | 1024.6 |
| 20260831190448 | 27 | 154 | 0.0 | 1.6 | 0.00 | 0.00 | 0.00 | 70 | 1024.4 |
| 20260831185946 | 27 | 140 | 0.0 | 3.2 | 0.00 | 0.00 | 0.00 | 70 | 1024.6 |
| 20260831185443 | 27 | 128 | 1.6 | 3.2 | 0.00 | 0.00 | 0.00 | 70 | 1024.7 |
| 20260831184942 | 27 | 178 | 3.2 | 4.8 | 0.00 | 0.00 | 0.00 | 72 | 1024.7 |
| 20260831184437 | 27 | 103 | 1.6 | 4.8 | 0.00 | 0.00 | 0.00 | 72 | 1024.7 |
| 20260831183932 | 27 | 233 | 1.6 | 3.2 | 0.00 | 0.00 | 0.00 | 71 | 1024.7 |
| 20260831183432 | 27 | 163 | 0.0 | 3.2 | 0.00 | 0.00 | 0.00 | 72 | 1024.7 |
| 20260831182931 | 26 | 295 | 0.0 | 3.2 | 0.00 | 0.00 | 0.00 | 72 | 1024.7 |
| 20260831182426 | 26 | 336 | 0.0 | 1.6 | 0.00 | 0.00 | 0.00 | 74 | 1024.9 |
| 20260831181922 | 26 | 163 | 0.0 | 0.0 | 0.00 | 0.00 | 0.00 | 78 | 1024.7 |
| 20260831181417 | 25 | 112 | 1.6 | 11.3 | 0.00 | 0.00 | 0.00 | 73 | 1024.7 |
| 20260831180912 | 25 | 146 | 1.6 | 1.6 | 0.00 | 0.00 | 0.00 | 80 | 1025.0 |
| 20260831180406 | 25 | 52 | 1.6 | 3.2 | 0.00 | 0.00 | 0.00 | 81 | 1024.9 |
| 20260831175905 | 25 | 109 | 3.2 | 4.8 | 0.00 | 0.00 | 0.00 | 81 | 1024.9 |
| 20260831175402 | 25 | 95 | 3.2 | 4.8 | 0.00 | 0.00 | 0.00 | 81 | 1024.8 |
| 20260831174858 | 25 | 107 | 0.0 | 3.2 | 0.00 | 0.00 | 0.00 | 80 | 1025.2 |
| 20260831174353 | 25 | 86 | 0.0 | 1.6 | 0.00 | 0.00 | 0.00 | 81 | 1025.0 |
| 20260831173852 | 25 | 110 | 1.6 | 3.2 | 0.00 | 0.00 | 0.00 | 83 | 1025.1 |
| 20260831173346 | 25 | 56 | 3.2 | 4.8 | 0.00 | 0.00 | 0.00 | 78 | 1025.0 |
| 20260831172841 | 25 | 55 | 0.0 | 3.2 | 0.00 | 0.00 | 0.00 | 78 | 1024.9 |
| 20260831172337 | 25 | 118 | 6.4 | 6.4 | 0.00 | 0.00 | 0.00 | 80 | 1024.9 |
| 20260831171836 | 25 | 284 | 0.0 | 0.0 | 0.00 | 0.00 | 0.00 | 83 | 1025.2 |
| 20260831171333 | 25 | 50 | 0.0 | 0.0 | 0.00 | 0.00 | 0.00 | 83 | 1025.0 |
| 20260831170830 | 25 | 5 | 0.0 | 1.6 | 0.00 | 0.00 | 0.00 | 85 | 1024.9 |
| 20260831170326 | 25 | 6 | 0.0 | 0.0 | 0.00 | 0.00 | 0.00 | 82 | 1024.8 |
| 20260831165822 | 25 | 14 | 0.0 | 0.0 | 0.00 | 0.00 | 0.00 | 81 | 1024.9 |
| 20260831165318 | 25 | 325 | 1.6 | 1.6 | 0.00 | 0.00 | 0.00 | 81 | 1025.0 |
| 20260831164814 | 25 | 73 | 0.0 | 1.6 | 0.00 | 0.00 | 0.00 | 83 | 1025.0 |
| 20260831164310 | 25 | 20 | 0.0 | 3.2 | 0.00 | 0.00 | 0.00 | 83 | 1025.1 |
| 20260831163805 | 25 | 246 | 0.0 | 3.2 | 0.00 | 0.00 | 0.00 | 83 | 1025.0 |
| 20260831163301 | 25 | 290 | 3.2 | 3.2 | 0.00 | 0.00 | 0.00 | 82 | 1025.2 |
| 20260831162759 | 25 | 33 | 0.0 | 0.0 | 0.00 | 0.00 | 0.00 | 82 | 1025.2 |
| 20260831162254 | 24 | 63 | 3.2 | 3.2 | 0.00 | 0.00 | 0.00 | 85 | 1025.3 |
| 20260831161748 | 25 | 63 | 1.6 | 3.2 | 0.00 | 0.00 | 0.00 | 83 | 1025.4 |
| 20260831161244 | 25 | 267 | 1.6 | 3.2 | 0.00 | 0.00 | 0.00 | 82 | 1025.2 |
| 20260831160744 | 24 | 149 | 0.0 | 0.0 | 0.00 | 0.00 | 0.00 | 84 | 1025.1 |
| 20260831160233 | 24 | 130 | 0.0 | 0.0 | 0.00 | 0.00 | 0.00 | 83 | 1025.4 |
| 20260831155733 | 25 | 90 | 3.2 | 3.2 | 0.00 | 0.00 | 0.00 | 83 | 1025.2 |
| 20260831155229 | 25 | 240 | 0.0 | 1.6 | 0.00 | 0.00 | 0.00 | 83 | 1025.3 |
| 20260831154724 | 25 | 236 | 0.0 | 0.0 | 0.00 | 0.00 | 0.00 | 84 | 1025.2 |
| 20260831154221 | 24 | 74 | 0.0 | 1.6 | 0.00 | 0.00 | 0.00 | 82 | 1025.1 |
| 20260831153719 | 24 | 162 | 0.0 | 1.6 | 0.00 | 0.00 | 0.00 | 83 | 1025.2 |
| 20260831153215 | 23 | 289 | 0.0 | 0.0 | 0.00 | 0.00 | 0.00 | 84 | 1025.2 |
| 20260831152711 | 23 | 247 | 0.0 | 1.6 | 0.00 | 0.00 | 0.00 | 84 | 1025.3 |
| 20260831152207 | 23 | 292 | 0.0 | 1.6 | 0.00 | 0.00 | 0.00 | 86 | 1025.5 |
| 20260831151706 | 23 | 196 | 0.0 | 0.0 | 0.00 | 0.00 | 0.00 | 85 | 1025.2 |
| 20260831151201 | 23 | 202 | 0.0 | 1.6 | 0.00 | 0.00 | 0.00 | 85 | 1025.8 |
| 20260831150656 | 23 | 250 | 1.6 | 1.6 | 0.00 | 0.00 | 0.00 | 86 | 1025.7 |
| 20260831150151 | 23 | 273 | 0.0 | 1.6 | 0.00 | 0.00 | 0.00 | 85 | 1025.7 |
| 20260831145650 | 23 | 125 | 0.0 | 0.0 | 0.00 | 0.00 | 0.00 | 86 | 1025.7 |
| 20260831145147 | 22 | 199 | 0.0 | 3.2 | 0.00 | 0.00 | 0.00 | 87 | 1025.7 |
| 20260831144642 | 23 | 283 | 0.0 | 1.6 | 0.00 | 0.00 | 0.00 | 85 | 1025.4 |
| 20260831144138 | 23 | 196 | 0.0 | 0.0 | 0.00 | 0.00 | 0.00 | 84 | 1025.5 |
| 20260831143637 | 22 | 133 | 0.0 | 0.0 | 0.00 | 0.00 | 0.00 | 84 | 1025.7 |
| 20260831143133 | 22 | 109 | 0.0 | 0.0 | 0.00 | 0.00 | 0.00 | 84 | 1025.4 |
| 20260831142630 | 22 | 154 | 0.0 | 0.0 | 0.00 | 0.00 | 0.00 | 86 | 1025.3 |
| 20260831142129 | 22 | 83 | 0.0 | 1.6 | 0.00 | 0.00 | 0.00 | 86 | 1025.3 |
| 20260831141628 | 22 | 55 | 1.6 | 3.2 | 0.00 | 0.00 | 0.00 | 87 | 1025.2 |
| 20260831141124 | 22 | 70 | 0.0 | 0.0 | 0.00 | 0.00 | 0.00 | 85 | 1025.5 |
| 20260831140623 | 22 | 212 | 0.0 | 1.6 | 0.00 | 0.00 | 0.00 | 86 | 1025.3 |
| 20260831140118 | 21 | 210 | 0.0 | 3.2 | 0.00 | 0.00 | 0.00 | 87 | 1025.3 |
| 20260831135615 | 21 | 197 | 0.0 | 3.2 | 0.00 | 0.00 | 0.00 | 88 | 1025.7 |
| 20260831135111 | 21 | 280 | 0.0 | 1.6 | 0.00 | 0.00 | 0.00 | 87 | 1025.4 |
| 20260831134607 | 21 | 237 | 0.0 | 4.8 | 0.00 | 0.00 | 0.00 | 89 | 1025.8 |
| 20260831134102 | 21 | 221 | 1.6 | 3.2 | 0.00 | 0.00 | 0.00 | 89 | 1025.5 |
| 20260831133601 | 21 | 220 | 1.6 | 4.8 | 0.00 | 0.00 | 0.00 | 88 | 1025.8 |
| 20260831133056 | 21 | 247 | 4.8 | 4.8 | 0.00 | 0.00 | 0.00 | 89 | 1025.8 |
| 20260831132553 | 21 | 244 | 3.2 | 4.8 | 0.00 | 0.00 | 0.00 | 90 | 1025.5 |
| 20260831132052 | 20 | 217 | 0.0 | 3.2 | 0.00 | 0.00 | 0.00 | 90 | 1025.7 |
| 20260831131546 | 20 | 53 | 0.0 | 3.2 | 0.00 | 0.00 | 0.00 | 92 | 1025.4 |
| 20260831131043 | 20 | 134 | 0.0 | 3.2 | 0.00 | 0.00 | 0.00 | 91 | 1025.4 |
| 20260831130538 | 20 | 246 | 3.2 | 4.8 | 0.00 | 0.00 | 0.00 | 92 | 1025.4 |
| 20260831130033 | 20 | 257 | 3.2 | 4.8 | 0.00 | 0.00 | 0.00 | 92 | 1025.7 |
| 20260831125531 | 20 | 183 | 0.0 | 1.6 | 0.00 | 0.00 | 0.00 | 93 | 1025.7 |
| 20260831125027 | 20 | 181 | 0.0 | 0.0 | 0.00 | 0.00 | 0.00 | 93 | 1025.5 |
| 20260831124524 | 20 | 221 | 1.6 | 3.2 | 0.00 | 0.00 | 0.00 | 92 | 1025.8 |
| 20260831124020 | 19 | 196 | 1.6 | 4.8 | 0.00 | 0.00 | 0.00 | 95 | 1025.5 |
| 20260831123518 | 19 | 230 | 1.6 | 6.4 | 0.00 | 0.00 | 0.00 | 96 | 1025.5 |
| 20260831123013 | 18 | 273 | 1.6 | 4.8 | 0.00 | 0.00 | 0.00 | 96 | 1025.8 |
| 20260831122508 | 18 | 264 | 3.2 | 3.2 | 0.00 | 0.00 | 0.00 | 98 | 1025.7 |
| 20260831122003 | 18 | 157 | 0.0 | 3.2 | 0.00 | 0.00 | 0.00 | 99 | 1025.8 |
| 20260831121458 | 17 | 72 | 0.0 | 0.0 | 0.00 | 0.00 | 0.00 | 99 | 1025.4 |
| 20260831120954 | 17 | 119 | 0.0 | 0.0 | 0.00 | 0.00 | 0.00 | 99 | 1025.5 |
| 20260831120453 | 17 | 186 | 1.6 | 1.6 | 0.00 | 0.00 | 0.00 | 99 | 1025.7 |
| 20260831115949 | 16 | 235 | 0.0 | 3.2 | 0.00 | 0.00 | 0.00 | 99 | 1025.8 |
| 20260831115445 | 16 | 231 | 0.0 | 3.2 | 0.00 | 0.00 | 0.00 | 99 | 1025.5 |
| 20260831114945 | 16 | 220 | 3.2 | 4.8 | 0.00 | 0.00 | 0.00 | 99 | 1025.5 |
| 20260831114443 | 16 | 226 | 3.2 | 4.8 | 0.00 | 0.00 | 0.00 | 99 | 1025.4 |
| 20260831113939 | 16 | 127 | 0.0 | 0.0 | 0.00 | 0.00 | 0.00 | 99 | 1025.7 |
| 20260831113438 | 16 | 104 | 0.0 | 0.0 | 0.00 | 0.00 | 0.00 | 99 | 1025.5 |
| 20260831112934 | 16 | 118 | 0.0 | 0.0 | 0.00 | 0.00 | 0.00 | 99 | 1025.4 |
| 20260831112434 | 16 | 84 | 0.0 | 0.0 | 0.00 | 0.00 | 0.00 | 99 | 1025.4 |
| 20260831111929 | 16 | 81 | 0.0 | 0.0 | 0.00 | 0.00 | 0.00 | 99 | 1025.5 |
| 20260831111425 | 16 | 187 | 0.0 | 0.0 | 0.00 | 0.00 | 0.00 | 99 | 1025.4 |
| 20260831110921 | 16 | 81 | 0.0 | 0.0 | 0.00 | 0.00 | 0.00 | 99 | 1025.3 |
| 20260831110415 | 16 | 27 | 0.0 | 0.0 | 0.00 | 0.00 | 0.00 | 99 | 1025.2 |
| 20260831105914 | 16 | 26 | 0.0 | 0.0 | 0.00 | 0.00 | 0.00 | 99 | 1025.2 |
| 20260831105409 | 16 | 26 | 0.0 | 0.0 | 0.00 | 0.00 | 0.00 | 99 | 1025.3 |
| 20260831104904 | 16 | 26 | 0.0 | 0.0 | 0.00 | 0.00 | 0.00 | 99 | 1025.3 |
| 20260831104400 | 16 | 26 | 0.0 | 0.0 | 0.00 | 0.00 | 0.00 | 99 | 1025.2 |
| 20260831103855 | 16 | 26 | 0.0 | 0.0 | 0.00 | 0.00 | 0.00 | 99 | 1025.1 |
| 20260831103351 | 16 | 26 | 0.0 | 0.0 | 0.00 | 0.00 | 0.00 | 99 | 1025.1 |
| 20260831102846 | 16 | 26 | 0.0 | 0.0 | 0.00 | 0.00 | 0.00 | 99 | 1025.2 |
| 20260831102341 | 16 | 26 | 0.0 | 0.0 | 0.00 | 0.00 | 0.00 | 99 | 1025.0 |
| 20260831101837 | 16 | 358 | 0.0 | 0.0 | 0.00 | 0.00 | 0.00 | 99 | 1025.0 |
| 20260831101332 | 16 | 47 | 0.0 | 0.0 | 0.00 | 0.00 | 0.00 | 99 | 1024.9 |
| 20260831100829 | 16 | 47 | 0.0 | 0.0 | 0.00 | 0.00 | 0.00 | 99 | 1024.8 |
| 20260831100324 | 16 | 47 | 0.0 | 0.0 | 0.00 | 0.00 | 0.00 | 99 | 1024.9 |
| 20260831095824 | 16 | 43 | 0.0 | 0.0 | 0.00 | 0.00 | 0.00 | 99 | 1024.9 |
| 20260831095318 | 16 | 43 | 0.0 | 0.0 | 0.00 | 0.00 | 0.00 | 99 | 1024.9 |
| 20260831094813 | 16 | 249 | 0.0 | 1.6 | 0.00 | 0.00 | 0.00 | 99 | 1025.0 |
| 20260831094308 | 16 | 187 | 0.0 | 0.0 | 0.00 | 0.00 | 0.00 | 99 | 1024.8 |
| 20260831093804 | 16 | 182 | 0.0 | 0.0 | 0.00 | 0.00 | 0.00 | 99 | 1025.0 |
| 20260831093304 | 16 | 207 | 0.0 | 0.0 | 0.00 | 0.00 | 0.00 | 99 | 1024.7 |
| 20260831092801 | 16 | 147 | 0.0 | 0.0 | 0.00 | 0.00 | 0.00 | 99 | 1024.9 |
| 20260831092256 | 16 | 147 | 0.0 | 0.0 | 0.00 | 0.00 | 0.00 | 99 | 1024.9 |
| 20260831091755 | 16 | 113 | 0.0 | 0.0 | 0.00 | 0.00 | 0.00 | 99 | 1024.7 |
| 20260831091251 | 16 | 113 | 0.0 | 0.0 | 0.00 | 0.00 | 0.00 | 99 | 1024.8 |
| 20260831090746 | 17 | 114 | 0.0 | 0.0 | 0.00 | 0.00 | 0.00 | 99 | 1024.7 |
| 20260831090242 | 16 | 114 | 0.0 | 0.0 | 0.00 | 0.00 | 0.00 | 99 | 1024.8 |
| 20260831085738 | 17 | 113 | 0.0 | 0.0 | 0.00 | 0.00 | 0.00 | 99 | 1024.7 |
| 20260831085233 | 17 | 113 | 0.0 | 0.0 | 0.00 | 0.00 | 0.00 | 99 | 1024.8 |
| 20260831084728 | 17 | 115 | 0.0 | 0.0 | 0.00 | 0.00 | 0.00 | 99 | 1024.7 |
| 20260831084224 | 17 | 116 | 0.0 | 0.0 | 0.00 | 0.00 | 0.00 | 99 | 1024.8 |
| 20260831083720 | 17 | 110 | 0.0 | 0.0 | 0.00 | 0.00 | 0.00 | 99 | 1024.7 |
| 20260831083216 | 17 | 110 | 0.0 | 0.0 | 0.00 | 0.00 | 0.00 | 99 | 1024.5 |
| 20260831082714 | 17 | 88 | 0.0 | 0.0 | 0.00 | 0.00 | 0.00 | 99 | 1024.7 |
| 20260831082204 | 17 | 91 | 0.0 | 0.0 | 0.00 | 0.00 | 0.00 | 99 | 1024.5 |
| 20260831081659 | 17 | 100 | 0.0 | 0.0 | 0.00 | 0.00 | 0.00 | 99 | 1024.4 |
| 20260831081154 | 17 | 107 | 0.0 | 0.0 | 0.00 | 0.00 | 0.00 | 99 | 1024.4 |
| 20260831080650 | 17 | 112 | 0.0 | 0.0 | 0.00 | 0.00 | 0.00 | 99 | 1024.5 |
| 20260831080150 | 17 | 341 | 0.0 | 1.6 | 0.00 | 0.00 | 0.00 | 99 | 1024.4 |
| 20260831075646 | 17 | 348 | 1.6 | 3.2 | 0.00 | 0.00 | 0.00 | 98 | 1024.3 |
| 20260831075141 | 17 | 175 | 0.0 | 6.4 | 0.00 | 0.00 | 0.00 | 98 | 1024.3 |
| 20260831074640 | 17 | 126 | 0.0 | 3.2 | 0.00 | 0.00 | 0.00 | 99 | 1024.4 |
| 20260831074135 | 17 | 229 | 1.6 | 3.2 | 0.00 | 0.00 | 0.00 | 98 | 1024.4 |
| 20260831073630 | 17 | 176 | 0.0 | 1.6 | 0.00 | 0.00 | 0.00 | 98 | 1024.3 |
| 20260831073129 | 17 | 175 | 1.6 | 3.2 | 0.00 | 0.00 | 0.00 | 99 | 1024.0 |
| 20260831072625 | 17 | 113 | 0.0 | 0.0 | 0.00 | 0.00 | 0.00 | 98 | 1024.1 |
| 20260831072122 | 17 | 109 | 0.0 | 1.6 | 0.00 | 0.00 | 0.00 | 98 | 1024.1 |
| 20260831071620 | 17 | 204 | 1.6 | 3.2 | 0.00 | 0.00 | 0.00 | 98 | 1024.2 |
| 20260831071115 | 17 | 186 | 1.6 | 3.2 | 0.00 | 0.00 | 0.00 | 98 | 1024.3 |
| 20260831070615 | 18 | 223 | 0.0 | 1.6 | 0.00 | 0.00 | 0.00 | 98 | 1024.4 |
| 20260831070109 | 18 | 229 | 0.0 | 4.8 | 0.00 | 0.00 | 0.00 | 97 | 1024.3 |
| 20260831065608 | 18 | 253 | 3.2 | 3.2 | 0.00 | 0.00 | 0.00 | 97 | 1024.2 |
| 20260831065102 | 18 | 220 | 3.2 | 6.4 | 0.00 | 0.00 | 0.00 | 97 | 1024.5 |
| 20260831064557 | 18 | 216 | 3.2 | 4.8 | 0.00 | 0.00 | 0.00 | 96 | 1024.4 |
| 20260831064052 | 18 | 160 | 3.2 | 6.4 | 0.00 | 0.00 | 0.00 | 97 | 1024.5 |
| 20260831063548 | 18 | 227 | 4.8 | 4.8 | 0.00 | 0.00 | 0.00 | 97 | 1024.5 |
| 20260831063048 | 18 | 235 | 0.0 | 3.2 | 0.00 | 0.00 | 0.00 | 97 | 1024.3 |
| 20260831062543 | 18 | 248 | 0.0 | 0.0 | 0.00 | 0.00 | 0.00 | 97 | 1024.4 |
| 20260831062042 | 18 | 289 | 0.0 | 1.6 | 0.00 | 0.00 | 0.00 | 97 | 1024.5 |
| 20260831061540 | 18 | 106 | 0.0 | 0.0 | 0.00 | 0.00 | 0.00 | 97 | 1024.3 |
| 20260831061038 | 18 | 105 | 0.0 | 0.0 | 0.00 | 0.00 | 0.00 | 97 | 1024.6 |
| 20260831060537 | 18 | 191 | 0.0 | 0.0 | 0.00 | 0.00 | 0.00 | 97 | 1024.8 |
| 20260831060028 | 18 | 172 | 0.0 | 0.0 | 0.00 | 0.00 | 0.00 | 97 | 1024.5 |
| 20260831055522 | 18 | 220 | 0.0 | 0.0 | 0.00 | 0.00 | 0.00 | 96 | 1024.8 |
| 20260831055018 | 18 | 128 | 0.0 | 0.0 | 0.00 | 0.00 | 0.00 | 96 | 1024.8 |